createdAt,value
2019-05-23T00:01:14.104Z,99.90
2019-05-23T00:03:48.654Z,99.90
2019-05-23T00:06:19.500Z,99.90
2019-05-23T00:08:49.986Z,99.90
2019-05-23T00:11:30.609Z,99.90
2019-05-23T00:14:05.591Z,99.90
2019-05-23T00:16:34.797Z,99.90
2019-05-23T00:19:04.557Z,99.90
2019-05-23T00:21:33.415Z,99.90
2019-05-23T00:24:04.074Z,99.90
2019-05-23T00:26:34.808Z,99.90
2019-05-23T00:29:10.651Z,99.90
2019-05-23T00:31:41.380Z,99.90
2019-05-23T00:34:11.036Z,99.90
2019-05-23T00:36:39.982Z,99.90
2019-05-23T00:39:09.787Z,99.90
2019-05-23T00:41:40.220Z,99.90
2019-05-23T00:44:10.295Z,99.90
2019-05-23T00:46:39.714Z,99.90
2019-05-23T00:49:09.168Z,99.90
2019-05-23T00:51:38.324Z,99.90
2019-05-23T00:54:09.450Z,99.90
2019-05-23T00:56:38.798Z,99.90
2019-05-23T00:59:08.306Z,99.90
2019-05-23T01:01:39.122Z,99.90
2019-05-23T01:04:11.808Z,99.90
2019-05-23T01:06:44.684Z,99.90
2019-05-23T01:09:14.773Z,99.90
2019-05-23T01:11:45.559Z,99.90
2019-05-23T01:14:18.522Z,99.90
2019-05-23T01:16:48.743Z,99.90
2019-05-23T01:19:19.406Z,99.90
2019-05-23T01:21:49.841Z,99.90
2019-05-23T01:24:23.280Z,99.90
2019-05-23T01:26:52.886Z,99.90
2019-05-23T01:29:24.218Z,99.90
2019-05-23T01:31:54.699Z,99.90
2019-05-23T01:34:25.629Z,99.90
2019-05-23T01:36:54.692Z,99.90
2019-05-23T01:39:23.587Z,99.90
2019-05-23T01:41:52.926Z,99.90
2019-05-23T01:44:22.601Z,99.90
2019-05-23T01:46:51.608Z,99.90
2019-05-23T01:49:21.296Z,99.90
2019-05-23T01:51:50.658Z,99.90
2019-05-23T01:54:19.578Z,99.90
2019-05-23T01:56:48.453Z,99.90
2019-05-23T01:59:17.703Z,99.90
2019-05-23T02:01:47.194Z,99.90
2019-05-23T02:04:16.047Z,99.90
2019-05-23T02:06:45.306Z,99.90
2019-05-23T02:09:14.326Z,99.90
2019-05-23T02:11:43.388Z,99.90
2019-05-23T02:14:12.252Z,99.90
2019-05-23T02:16:42.670Z,99.90
2019-05-23T02:19:13.765Z,99.90
2019-05-23T02:21:43.236Z,99.90
2019-05-23T02:24:12.648Z,99.90
2019-05-23T02:26:42.713Z,99.90
2019-05-23T02:29:12.077Z,99.90
2019-05-23T02:31:41.392Z,99.90
2019-05-23T02:34:10.758Z,99.90
2019-05-23T02:36:39.733Z,99.90
2019-05-23T02:39:13.855Z,99.90
2019-05-23T02:41:47.375Z,99.90
2019-05-23T02:44:20.565Z,99.90
2019-05-23T02:46:57.024Z,99.90
2019-05-23T02:49:31.013Z,99.90
2019-05-23T02:52:15.778Z,99.90
2019-05-23T02:54:44.660Z,99.90
2019-05-23T02:57:16.072Z,99.90
2019-05-23T02:59:53.396Z,99.90
2019-05-23T03:02:35.945Z,99.90
2019-05-23T03:05:10.893Z,99.90
2019-05-23T03:07:40.150Z,99.90
2019-05-23T03:10:09.756Z,99.90
2019-05-23T03:12:41.214Z,99.90
2019-05-23T03:15:12.728Z,99.90
2019-05-23T03:17:44.788Z,99.90
2019-05-23T03:20:16.652Z,99.90
2019-05-23T03:23:02.291Z,99.90
2019-05-23T03:25:40.882Z,99.90
2019-05-23T03:28:12.796Z,99.90
2019-05-23T03:30:44.218Z,99.90
2019-05-23T03:33:14.737Z,99.90
2019-05-23T03:35:51.304Z,99.90
2019-05-23T03:38:20.882Z,99.90
2019-05-23T03:40:50.327Z,99.90
2019-05-23T03:43:20.832Z,99.90
2019-05-23T03:45:53.998Z,99.90
2019-05-23T03:48:24.318Z,99.90
2019-05-23T03:50:55.638Z,99.90
2019-05-23T03:53:27.510Z,99.90
2019-05-23T03:55:57.658Z,99.90
2019-05-23T03:58:27.260Z,99.90
2019-05-23T04:00:57.553Z,99.90
2019-05-23T04:03:27.322Z,99.90
2019-05-23T04:05:57.131Z,99.90
2019-05-23T04:08:27.140Z,99.90
2019-05-23T04:10:56.822Z,99.90
2019-05-23T04:13:25.824Z,99.90
2019-05-23T04:15:54.792Z,99.90
2019-05-23T04:18:23.952Z,99.90
2019-05-23T04:20:56.699Z,99.90
2019-05-23T04:23:26.542Z,99.90
2019-05-23T04:25:55.396Z,99.90
2019-05-23T04:28:24.400Z,99.90
2019-05-23T04:30:53.469Z,99.90
2019-05-23T04:33:22.542Z,99.90
2019-05-23T04:35:51.557Z,99.90
2019-05-23T04:38:20.542Z,99.90
2019-05-23T04:40:52.905Z,99.90
2019-05-23T04:43:22.026Z,99.90
2019-05-23T04:45:50.989Z,99.90
2019-05-23T04:48:19.859Z,99.90
2019-05-23T04:50:48.777Z,99.90
2019-05-23T04:53:17.746Z,99.90
2019-05-23T04:55:47.604Z,99.90
2019-05-23T04:58:17.338Z,99.90
2019-05-23T05:00:46.305Z,99.90
2019-05-23T05:03:20.026Z,99.90
2019-05-23T05:05:52.014Z,99.90
2019-05-23T05:08:23.593Z,99.90
2019-05-23T05:10:52.664Z,99.90
2019-05-23T05:13:21.671Z,99.90
2019-05-23T05:15:50.835Z,99.70
2019-05-23T05:18:21.958Z,99.90
2019-05-23T05:20:52.214Z,99.90
2019-05-23T05:23:21.889Z,99.90
2019-05-23T05:25:50.748Z,99.90
2019-05-23T05:28:22.449Z,99.90
2019-05-23T05:30:52.004Z,99.90
2019-05-23T05:33:20.978Z,99.90
2019-05-23T05:35:52.895Z,99.90
2019-05-23T05:38:21.855Z,99.90
2019-05-23T05:40:53.650Z,99.90
2019-05-23T05:43:22.960Z,99.90
2019-05-23T05:45:51.861Z,99.90
2019-05-23T05:48:21.487Z,99.90
2019-05-23T05:50:51.049Z,99.90
2019-05-23T05:53:19.980Z,99.90
2019-05-23T05:55:48.862Z,99.90
2019-05-23T05:58:17.799Z,99.90
2019-05-23T06:00:51.060Z,99.90
2019-05-23T06:03:20.364Z,99.90
2019-05-23T06:05:50.846Z,99.60
2019-05-23T06:08:21.372Z,99.90
2019-05-23T06:10:50.230Z,99.90
2019-05-23T06:13:19.443Z,99.90
2019-05-23T06:15:52.664Z,99.90
2019-05-23T06:18:21.926Z,99.90
2019-05-23T06:20:51.233Z,99.90
2019-05-23T06:23:20.387Z,99.70
2019-05-23T06:25:59.228Z,99.90
2019-05-23T06:28:36.778Z,99.70
2019-05-23T06:31:05.773Z,99.70
2019-05-23T06:33:35.313Z,99.70
2019-05-23T06:36:04.977Z,99.80
2019-05-23T06:38:34.812Z,99.90
2019-05-23T06:41:05.460Z,99.50
2019-05-23T06:43:35.991Z,99.80
2019-05-23T06:46:05.816Z,99.50
2019-05-23T06:48:35.166Z,99.50
2019-05-23T06:51:04.806Z,99.60
2019-05-23T06:53:34.886Z,99.40
2019-05-23T06:56:08.681Z,99.50
2019-05-23T06:58:41.580Z,99.10
2019-05-23T07:01:10.888Z,99.50
2019-05-23T07:03:44.065Z,99.40
2019-05-23T07:06:16.678Z,98.90
2019-05-23T07:08:47.514Z,99.30
2019-05-23T07:11:20.041Z,98.80
2019-05-23T07:13:49.196Z,99.90
2019-05-23T07:16:18.075Z,99.10
2019-05-23T07:18:46.908Z,98.10
2019-05-23T07:21:15.925Z,98.50
2019-05-23T07:23:44.961Z,98.80
2019-05-23T07:26:14.566Z,98.90
2019-05-23T07:28:43.506Z,98.80
2019-05-23T07:31:12.615Z,98.50
2019-05-23T07:33:59.892Z,98.60
2019-05-23T07:36:13.477Z,98.70
2019-05-23T07:38:43.050Z,99.20
2019-05-23T07:41:12.437Z,98.80
2019-05-23T07:43:41.404Z,98.80
2019-05-23T07:46:10.383Z,99.30
2019-05-23T07:48:39.815Z,99.00
2019-05-23T07:51:08.807Z,98.40
2019-05-23T07:53:43.965Z,99.10
2019-05-23T07:56:14.423Z,98.90
2019-05-23T07:58:43.262Z,98.50
2019-05-23T08:01:14.282Z,98.60
2019-05-23T08:03:43.862Z,98.20
2019-05-23T08:06:13.009Z,98.60
2019-05-23T08:08:41.963Z,98.60
2019-05-23T08:11:10.900Z,99.50
2019-05-23T08:13:39.891Z,98.80
2019-05-23T08:16:08.766Z,99.10
2019-05-23T08:18:37.673Z,99.50
2019-05-23T08:21:06.548Z,99.30
2019-05-23T08:23:35.413Z,99.40
2019-05-23T08:26:04.323Z,99.20
2019-05-23T08:28:33.477Z,99.70
2019-05-23T08:31:06.791Z,99.30
2019-05-23T08:33:37.194Z,98.40
2019-05-23T08:36:06.653Z,99.10
2019-05-23T08:38:36.773Z,98.90
2019-05-23T08:41:06.922Z,98.70
2019-05-23T08:43:35.961Z,97.80
2019-05-23T08:46:04.836Z,98.10
2019-05-23T08:48:33.918Z,98.20
2019-05-23T08:51:02.862Z,97.30
2019-05-23T08:53:31.782Z,97.30
2019-05-23T08:56:00.900Z,97.50
2019-05-23T08:58:29.760Z,98.10
2019-05-23T09:00:58.672Z,97.50
2019-05-23T09:03:27.991Z,96.40
2019-05-23T09:05:58.065Z,97.20
2019-05-23T09:08:27.739Z,96.40
2019-05-23T09:10:57.039Z,96.80
2019-05-23T09:13:26.030Z,97.30
2019-05-23T09:15:55.027Z,96.60
2019-05-23T09:18:24.519Z,97.40
2019-05-23T09:20:53.682Z,96.60
2019-05-23T09:23:23.230Z,97.00
2019-05-23T09:25:52.187Z,96.90
2019-05-23T09:28:21.145Z,97.30
2019-05-23T09:30:53.674Z,97.00
2019-05-23T09:33:23.436Z,97.30
2019-05-23T09:35:52.561Z,97.20
2019-05-23T09:38:21.935Z,97.00
2019-05-23T09:40:51.164Z,97.50
2019-05-23T09:43:23.930Z,97.30
2019-05-23T09:45:52.796Z,97.10
2019-05-23T09:48:22.805Z,95.90
2019-05-23T09:50:51.682Z,95.90
2019-05-23T09:53:22.535Z,95.50
2019-05-23T09:55:51.432Z,96.30
2019-05-23T09:58:20.499Z,95.90
2019-05-23T10:00:49.477Z,96.40
2019-05-23T10:03:18.988Z,95.60
2019-05-23T10:05:47.853Z,95.90
2019-05-23T10:08:16.713Z,95.80
2019-05-23T10:10:45.623Z,95.60
2019-05-23T10:13:14.580Z,96.30
2019-05-23T10:15:45.066Z,96.20
2019-05-23T10:18:18.237Z,96.40
2019-05-23T10:20:47.494Z,94.50
2019-05-23T10:23:17.254Z,95.60
2019-05-23T10:25:46.333Z,96.20
2019-05-23T10:28:15.609Z,95.60
2019-05-23T10:30:44.500Z,96.20
2019-05-23T10:33:13.629Z,95.50
2019-05-23T10:35:58.919Z,95.80
2019-05-23T10:38:13.616Z,95.40
2019-05-23T10:40:42.867Z,95.20
2019-05-23T10:43:14.934Z,96.40
2019-05-23T10:45:43.798Z,95.50
2019-05-23T10:48:13.992Z,95.10
2019-05-23T10:50:45.187Z,95.20
2019-05-23T10:53:17.604Z,94.60
2019-05-23T10:55:46.486Z,94.80
2019-05-23T10:58:20.091Z,95.00
2019-05-23T11:00:50.708Z,95.10
2019-05-23T11:03:20.264Z,94.80
2019-05-23T11:05:49.677Z,95.20
2019-05-23T11:08:18.564Z,94.90
2019-05-23T11:10:47.745Z,94.50
2019-05-23T11:13:16.867Z,94.10
2019-05-23T11:15:45.824Z,94.90
2019-05-23T11:18:14.950Z,93.60
2019-05-23T11:20:45.660Z,94.40
2019-05-23T11:23:20.574Z,94.10
2019-05-23T11:25:50.394Z,94.00
2019-05-23T11:28:19.377Z,92.40
2019-05-23T11:30:58.201Z,93.30
2019-05-23T11:33:27.869Z,93.10
2019-05-23T11:35:58.570Z,91.20
2019-05-23T11:38:27.598Z,90.20
2019-05-23T11:40:56.451Z,88.40
2019-05-23T11:43:25.709Z,89.80
2019-05-23T11:46:05.250Z,89.10
2019-05-23T11:48:35.204Z,85.80
2019-05-23T11:51:04.076Z,88.70
2019-05-23T11:53:33.109Z,86.80
2019-05-23T11:56:02.284Z,87.20
2019-05-23T11:58:32.716Z,89.00
2019-05-23T12:01:19.885Z,90.10
2019-05-23T12:03:42.330Z,87.20
2019-05-23T12:06:11.498Z,85.90
2019-05-23T12:08:44.568Z,88.50
2019-05-23T12:11:14.105Z,90.10
2019-05-23T12:13:43.298Z,88.10
2019-05-23T12:16:12.277Z,89.00
2019-05-23T12:18:41.554Z,90.60
2019-05-23T12:21:10.509Z,87.70
2019-05-23T12:23:39.385Z,86.90
2019-05-23T12:26:09.209Z,87.40
2019-05-23T12:28:38.240Z,86.30
2019-05-23T12:31:09.617Z,87.20
2019-05-23T12:33:38.661Z,89.20
2019-05-23T12:36:07.886Z,88.10
2019-05-23T12:38:36.820Z,90.10
2019-05-23T12:41:08.055Z,90.20
2019-05-23T12:43:36.980Z,87.50
2019-05-23T12:46:06.103Z,86.10
2019-05-23T12:48:48.636Z,88.30
2019-05-23T12:51:31.547Z,90.00
2019-05-23T12:54:00.570Z,86.90
2019-05-23T12:56:29.970Z,88.10
2019-05-23T12:58:59.372Z,87.70
2019-05-23T13:01:29.008Z,86.70
2019-05-23T13:03:58.323Z,84.70
2019-05-23T13:06:27.451Z,85.60
2019-05-23T13:08:56.402Z,83.10
2019-05-23T13:11:28.483Z,84.20
2019-05-23T13:13:57.413Z,81.30
2019-05-23T13:16:26.462Z,81.90
2019-05-23T13:18:55.493Z,80.20
2019-05-23T13:21:24.383Z,83.20
2019-05-23T13:23:53.294Z,84.50
2019-05-23T13:26:23.779Z,82.70
2019-05-23T13:28:53.746Z,83.30
2019-05-23T13:31:22.713Z,80.10
2019-05-23T13:33:51.619Z,82.50
2019-05-23T13:36:20.599Z,80.40
2019-05-23T13:38:52.449Z,83.70
2019-05-23T13:41:21.412Z,83.80
2019-05-23T13:43:50.492Z,82.10
2019-05-23T13:46:19.606Z,81.50
2019-05-23T13:48:48.502Z,82.20
2019-05-23T13:51:17.368Z,84.20
2019-05-23T13:53:46.424Z,83.30
2019-05-23T13:56:19.680Z,81.70
2019-05-23T13:58:48.716Z,82.40
2019-05-23T14:01:19.047Z,84.60
2019-05-23T14:03:48.130Z,87.80
2019-05-23T14:06:19.742Z,86.40
2019-05-23T14:08:48.712Z,86.50
2019-05-23T14:11:20.793Z,88.20
2019-05-23T14:13:59.156Z,85.90
2019-05-23T14:16:20.630Z,87.60
2019-05-23T14:18:49.605Z,89.90
2019-05-23T14:21:18.494Z,87.60
2019-05-23T14:23:50.389Z,85.90
2019-05-23T14:26:29.265Z,86.20
2019-05-23T14:28:58.223Z,85.20
2019-05-23T14:31:28.669Z,84.50
2019-05-23T14:34:02.137Z,84.70
2019-05-23T14:36:35.511Z,86.80
2019-05-23T14:39:08.910Z,85.30
2019-05-23T14:41:45.422Z,87.50
2019-05-23T14:44:10.071Z,86.90
2019-05-23T14:46:56.896Z,87.90
2019-05-23T14:49:27.491Z,89.00
2019-05-23T14:51:57.976Z,87.90
2019-05-23T14:54:31.343Z,89.50
2019-05-23T14:57:00.203Z,88.40
2019-05-23T14:59:30.136Z,89.10
2019-05-23T15:01:59.311Z,87.80
2019-05-23T15:04:28.715Z,88.60
2019-05-23T15:06:57.733Z,89.80
2019-05-23T15:09:29.482Z,88.40
2019-05-23T15:11:58.844Z,89.90
2019-05-23T15:14:27.927Z,90.50
2019-05-23T15:16:56.813Z,90.70
2019-05-23T15:19:39.053Z,89.20
2019-05-23T15:21:56.931Z,90.10
2019-05-23T15:24:26.279Z,90.20
2019-05-23T15:26:57.968Z,90.80
2019-05-23T15:29:29.298Z,89.10
2019-05-23T15:32:02.532Z,89.30
2019-05-23T15:34:29.395Z,90.30
2019-05-23T15:36:58.325Z,90.50
2019-05-23T15:39:27.293Z,91.00
2019-05-23T15:41:56.269Z,90.40
2019-05-23T15:44:30.215Z,90.40
2019-05-23T15:47:08.143Z,89.30
2019-05-23T15:49:38.859Z,90.10
2019-05-23T15:52:18.493Z,90.50
2019-05-23T15:54:52.092Z,90.20
2019-05-23T15:57:42.338Z,88.80
2019-05-23T16:00:13.317Z,89.00
2019-05-23T16:02:43.833Z,89.30
2019-05-23T16:05:14.350Z,90.00
2019-05-23T16:07:43.366Z,90.80
2019-05-23T16:10:14.088Z,90.20
2019-05-23T16:12:42.986Z,90.20
2019-05-23T16:15:11.954Z,90.40
2019-05-23T16:17:44.126Z,90.00
2019-05-23T16:20:13.624Z,90.70
2019-05-23T16:22:42.577Z,90.70
2019-05-23T16:25:11.577Z,90.50
2019-05-23T16:27:40.596Z,90.30
2019-05-23T16:30:09.667Z,89.20
2019-05-23T16:32:38.694Z,89.80
2019-05-23T16:35:07.844Z,91.00
2019-05-23T16:37:37.133Z,91.10
2019-05-23T16:40:09.438Z,90.60
2019-05-23T16:42:38.418Z,89.40
2019-05-23T16:45:08.478Z,90.20
2019-05-23T16:47:37.597Z,89.50
2019-05-23T16:50:10.233Z,90.30
2019-05-23T16:52:39.344Z,90.70
2019-05-23T16:55:10.322Z,90.20
2019-05-23T16:57:46.254Z,90.00
2019-05-23T17:00:21.597Z,90.10
2019-05-23T17:02:52.838Z,89.20
2019-05-23T17:05:26.365Z,90.30
2019-05-23T17:08:04.312Z,90.20
2019-05-23T17:10:37.873Z,88.70
2019-05-23T17:13:08.474Z,89.30
2019-05-23T17:15:44.418Z,89.90
2019-05-23T17:18:31.460Z,90.50
2019-05-23T17:21:01.903Z,89.80
2019-05-23T17:23:32.529Z,88.70
2019-05-23T17:26:19.452Z,90.30
2019-05-23T17:28:49.891Z,90.00
2019-05-23T17:31:21.432Z,89.80
2019-05-23T17:33:51.259Z,90.10
2019-05-23T17:36:20.581Z,89.80
2019-05-23T17:38:49.506Z,90.50
2019-05-23T17:41:19.216Z,89.70
2019-05-23T17:43:48.076Z,90.40
2019-05-23T17:46:17.148Z,90.40
2019-05-23T17:48:46.252Z,90.00
2019-05-23T17:51:15.241Z,90.50
2019-05-23T17:53:47.223Z,90.20
2019-05-23T17:56:16.137Z,90.60
2019-05-23T17:58:47.882Z,91.40
2019-05-23T18:01:16.796Z,90.50
2019-05-23T18:03:45.664Z,90.60
2019-05-23T18:06:14.525Z,90.80
2019-05-23T18:08:43.453Z,90.50
2019-05-23T18:11:12.931Z,90.20
2019-05-23T18:13:41.987Z,90.90
2019-05-23T18:16:12.306Z,90.50
2019-05-23T18:18:41.500Z,90.30
2019-05-23T18:21:10.805Z,90.50
2019-05-23T18:23:39.889Z,90.80
2019-05-23T18:26:08.934Z,91.60
2019-05-23T18:28:38.861Z,91.20
2019-05-23T18:31:11.066Z,91.50
2019-05-23T18:33:43.374Z,91.50
2019-05-23T18:36:12.436Z,91.40
2019-05-23T18:38:41.403Z,90.90
2019-05-23T18:41:11.102Z,90.70
2019-05-23T18:43:40.314Z,91.20
2019-05-23T18:46:17.068Z,91.10
2019-05-23T18:48:45.920Z,91.60
2019-05-23T18:51:14.798Z,92.00
2019-05-23T18:53:43.717Z,91.90
2019-05-23T18:56:12.767Z,92.10
2019-05-23T18:58:41.843Z,91.40
2019-05-23T19:01:15.524Z,91.80
2019-05-23T19:03:44.624Z,91.00
2019-05-23T19:06:13.535Z,91.50
2019-05-23T19:08:42.795Z,91.50
2019-05-23T19:11:20.795Z,91.20
2019-05-23T19:13:42.800Z,91.20
2019-05-23T19:16:11.726Z,91.40
2019-05-23T19:18:40.943Z,91.40
2019-05-23T19:21:11.374Z,91.60
2019-05-23T19:23:40.885Z,91.80
2019-05-23T19:26:10.288Z,91.40
2019-05-23T19:28:40.759Z,91.60
2019-05-23T19:31:10.164Z,91.50
2019-05-23T19:33:39.658Z,91.50
2019-05-23T19:36:10.479Z,91.90
2019-05-23T19:38:39.503Z,92.10
2019-05-23T19:41:09.956Z,92.10
2019-05-23T19:43:38.917Z,92.10
2019-05-23T19:46:07.941Z,92.20
2019-05-23T19:48:37.639Z,92.50
2019-05-23T19:51:07.014Z,92.50
2019-05-23T19:53:36.544Z,92.50
2019-05-23T19:56:07.179Z,92.90
2019-05-23T19:58:38.920Z,92.90
2019-05-23T20:01:08.246Z,93.00
2019-05-23T20:03:37.216Z,93.10
2019-05-23T20:06:09.895Z,92.80
2019-05-23T20:08:39.412Z,93.20
2019-05-23T20:11:11.373Z,93.50
2019-05-23T20:13:40.449Z,93.30
2019-05-23T20:16:09.526Z,93.30
2019-05-23T20:18:38.372Z,93.70
2019-05-23T20:21:07.434Z,93.60
2019-05-23T20:23:36.361Z,93.80
2019-05-23T20:26:07.865Z,94.00
2019-05-23T20:28:39.511Z,94.10
2019-05-23T20:31:06.906Z,94.00
2019-05-23T20:33:35.871Z,94.20
2019-05-23T20:36:11.899Z,94.20
2019-05-23T20:38:39.833Z,94.30
2019-05-23T20:41:08.828Z,94.50
2019-05-23T20:43:37.841Z,94.70
2019-05-23T20:46:06.822Z,94.60
2019-05-23T20:48:37.135Z,95.10
2019-05-23T20:51:06.062Z,95.30
2019-05-23T20:53:35.172Z,95.40
2019-05-23T20:56:04.460Z,95.30
2019-05-23T20:58:37.979Z,95.30
2019-05-23T21:01:09.230Z,95.20
2019-05-23T21:03:38.362Z,95.60
2019-05-23T21:06:07.750Z,95.60
2019-05-23T21:08:37.100Z,95.90
2019-05-23T21:11:07.565Z,96.00
2019-05-23T21:13:39.402Z,96.10
2019-05-23T21:16:08.794Z,96.00
2019-05-23T21:18:50.437Z,96.00
2019-05-23T21:21:18.486Z,96.20
2019-05-23T21:23:56.681Z,96.10
2019-05-23T21:26:23.097Z,96.00
2019-05-23T21:28:52.110Z,96.20
2019-05-23T21:31:23.500Z,96.50
2019-05-23T21:33:57.709Z,96.20
2019-05-23T21:36:42.094Z,96.00
2019-05-23T21:39:12.055Z,96.10
2019-05-23T21:41:49.043Z,96.10
2019-05-23T21:44:18.425Z,96.80
2019-05-23T21:46:56.163Z,96.40
2019-05-23T21:49:27.216Z,96.50
2019-05-23T21:54:47.915Z,96.50
2019-05-23T21:57:22.657Z,96.80
2019-05-23T21:59:52.632Z,96.70
2019-05-23T22:04:05.667Z,96.70
2019-05-23T22:06:02.964Z,96.90
2019-05-23T22:11:09.995Z,96.50
2019-05-23T22:13:39.132Z,96.40
2019-05-23T22:16:12.424Z,97.00
2019-05-23T22:18:44.151Z,96.60
2019-05-23T22:21:25.816Z,96.60
2019-05-23T22:24:03.265Z,96.60
2019-05-23T22:26:46.815Z,96.50
2019-05-23T22:29:36.399Z,96.80
2019-05-23T22:32:09.097Z,96.80
2019-05-23T22:34:40.094Z,96.80
2019-05-23T22:37:10.656Z,97.00
2019-05-23T22:39:39.715Z,97.60
2019-05-23T22:42:09.893Z,97.10
2019-05-23T22:44:38.873Z,97.40
2019-05-23T22:47:09.575Z,96.80
2019-05-23T22:49:38.738Z,97.00
2019-05-23T22:52:07.696Z,97.10
2019-05-23T22:54:36.620Z,97.40
2019-05-23T22:57:05.575Z,97.50
2019-05-23T22:59:34.475Z,97.60
2019-05-23T23:02:10.626Z,97.60
2019-05-23T23:04:39.502Z,97.70
2019-05-23T23:07:09.465Z,97.60
2019-05-23T23:09:38.377Z,97.50
2019-05-23T23:12:07.258Z,97.40
2019-05-23T23:14:36.120Z,97.40
2019-05-23T23:17:05.041Z,97.40
2019-05-23T23:19:33.924Z,97.50
2019-05-23T23:22:02.778Z,97.50
2019-05-23T23:24:34.428Z,97.50
2019-05-23T23:27:03.288Z,97.60
2019-05-23T23:29:32.160Z,97.60
2019-05-23T23:32:03.785Z,97.80
2019-05-23T23:34:31.587Z,97.80
2019-05-23T23:37:00.440Z,97.80
2019-05-23T23:39:29.299Z,97.80
2019-05-23T23:41:58.201Z,97.60
2019-05-23T23:44:35.524Z,97.70
2019-05-23T23:47:23.802Z,97.80
2019-05-23T23:50:10.222Z,97.50
2019-05-23T23:52:56.986Z,97.70
2019-05-23T23:55:44.088Z,97.70
2019-05-23T23:58:31.505Z,97.80
